createdAt,value
2022-08-02T00:00:35.139Z,19.98
2022-08-02T00:03:03.169Z,19.91
2022-08-02T00:05:31.244Z,19.97
2022-08-02T00:08:00.798Z,19.87
2022-08-02T00:10:29.066Z,19.85
2022-08-02T00:13:01.186Z,19.79
2022-08-02T00:15:29.179Z,19.68
2022-08-02T00:17:57.310Z,19.68
2022-08-02T00:20:25.359Z,19.64
2022-08-02T00:22:53.379Z,19.67
2022-08-02T00:25:22.897Z,19.59
2022-08-02T00:27:50.865Z,19.72
2022-08-02T00:30:18.977Z,19.68
2022-08-02T00:32:47.179Z,19.69
2022-08-02T00:35:15.549Z,19.62
2022-08-02T00:37:43.762Z,19.62
2022-08-02T00:40:12.881Z,19.61
2022-08-02T00:42:44.254Z,19.58
2022-08-02T00:45:12.472Z,19.64
2022-08-02T00:47:40.411Z,19.64
2022-08-02T00:50:09.056Z,19.48
2022-08-02T00:52:37.080Z,19.20
2022-08-02T00:55:05.703Z,18.98
2022-08-02T00:57:33.726Z,18.84
2022-08-02T01:00:03.338Z,18.72
2022-08-02T01:02:31.580Z,18.63
2022-08-02T01:04:59.519Z,18.55
2022-08-02T01:07:28.116Z,18.43
2022-08-02T01:09:56.088Z,18.38
2022-08-02T01:12:24.184Z,18.22
2022-08-02T01:14:53.423Z,18.19
2022-08-02T01:17:31.504Z,18.09
2022-08-02T01:20:09.743Z,17.94
2022-08-02T01:23:01.517Z,17.79
2022-08-02T01:26:04.368Z,17.70
2022-08-02T01:28:39.692Z,17.55
2022-08-02T01:31:15.771Z,17.43
2022-08-02T01:33:49.733Z,17.31
2022-08-02T01:36:19.960Z,17.28
2022-08-02T01:38:50.391Z,17.23
2022-08-02T01:41:21.227Z,17.05
2022-08-02T01:43:55.124Z,16.90
2022-08-02T01:46:24.159Z,16.88
2022-08-02T01:48:54.998Z,16.77
2022-08-02T01:51:45.131Z,16.80
2022-08-02T01:54:15.655Z,16.77
2022-08-02T01:56:45.735Z,16.69
2022-08-02T01:59:19.906Z,16.72
2022-08-02T02:01:50.819Z,16.65
2022-08-02T02:04:21.583Z,16.68
2022-08-02T02:06:51.609Z,16.59
2022-08-02T02:09:21.276Z,16.61
2022-08-02T02:12:12.050Z,16.55
2022-08-02T02:14:42.127Z,16.56
2022-08-02T02:17:50.769Z,16.55
2022-08-02T02:20:14.455Z,16.54
2022-08-02T02:22:42.578Z,16.47
2022-08-02T02:25:11.983Z,16.42
2022-08-02T02:27:52.533Z,16.44
2022-08-02T02:30:23.102Z,16.44
2022-08-02T02:32:53.973Z,16.44
2022-08-02T02:35:24.044Z,16.37
2022-08-02T02:37:54.125Z,16.30
2022-08-02T02:40:24.550Z,16.20
2022-08-02T02:42:53.296Z,16.34
2022-08-02T02:45:23.227Z,16.35
2022-08-02T02:47:52.172Z,16.40
2022-08-02T02:50:21.745Z,16.48
2022-08-02T02:52:50.172Z,16.53
2022-08-02T02:55:21.923Z,16.56
2022-08-02T02:57:50.170Z,16.53
2022-08-02T03:00:18.617Z,16.54
2022-08-02T03:02:51.459Z,16.51
2022-08-02T03:05:19.546Z,16.47
2022-08-02T03:07:47.550Z,16.38
2022-08-02T03:10:15.571Z,16.38
2022-08-02T03:12:43.721Z,16.42
2022-08-02T03:15:15.284Z,16.42
2022-08-02T03:17:45.462Z,16.47
2022-08-02T03:20:17.573Z,16.44
2022-08-02T03:22:46.449Z,16.31
2022-08-02T03:25:16.084Z,16.28
2022-08-02T03:27:44.121Z,16.22
2022-08-02T03:30:14.265Z,16.24
2022-08-02T03:32:44.140Z,16.26
2022-08-02T03:35:23.342Z,16.26
2022-08-02T03:37:55.296Z,16.16
2022-08-02T03:40:24.547Z,16.23
2022-08-02T03:42:53.053Z,16.17
2022-08-02T03:45:21.991Z,16.14
2022-08-02T03:47:50.820Z,16.15
2022-08-02T03:50:22.998Z,16.15
2022-08-02T03:52:52.180Z,16.22
2022-08-02T03:55:20.346Z,16.18
2022-08-02T03:57:48.580Z,16.15
2022-08-02T04:00:21.147Z,16.12
2022-08-02T04:02:49.827Z,16.11
2022-08-02T04:05:19.802Z,16.11
2022-08-02T04:08:32.682Z,16.17
2022-08-02T04:10:51.430Z,16.18
2022-08-02T04:13:22.701Z,16.23
2022-08-02T04:15:55.253Z,16.26
2022-08-02T04:18:27.355Z,16.29
2022-08-02T04:20:58.009Z,16.32
2022-08-02T04:23:27.952Z,16.40
2022-08-02T04:26:01.571Z,16.42
2022-08-02T04:28:33.667Z,16.41
2022-08-02T04:31:02.304Z,16.49
2022-08-02T04:33:31.010Z,16.54
2022-08-02T04:36:00.442Z,16.71
2022-08-02T04:38:28.515Z,16.77
2022-08-02T04:40:57.297Z,16.85
2022-08-02T04:43:25.555Z,16.95
2022-08-02T04:45:54.899Z,17.06
2022-08-02T04:48:24.091Z,17.14
2022-08-02T04:50:52.595Z,17.07
2022-08-02T04:53:22.002Z,17.04
2022-08-02T04:55:50.044Z,17.02
2022-08-02T04:58:39.459Z,17.18
2022-08-02T05:01:06.209Z,17.37
2022-08-02T05:03:34.417Z,17.51
2022-08-02T05:06:02.405Z,17.62
2022-08-02T05:08:32.001Z,17.64
2022-08-02T05:11:00.046Z,17.76
2022-08-02T05:13:28.069Z,17.79
2022-08-02T05:15:56.021Z,17.83
2022-08-02T05:18:23.995Z,17.90
2022-08-02T05:20:56.451Z,17.90
2022-08-02T05:23:26.182Z,18.00
2022-08-02T05:25:55.774Z,18.07
2022-08-02T05:28:23.724Z,18.22
2022-08-02T05:30:51.995Z,18.36
2022-08-02T05:33:20.046Z,18.45
2022-08-02T05:35:48.061Z,18.56
2022-08-02T05:38:16.106Z,18.66
2022-08-02T05:40:54.586Z,18.63
2022-08-02T05:43:24.506Z,18.88
2022-08-02T05:45:54.598Z,19.02
2022-08-02T05:48:26.422Z,19.03
2022-08-02T05:51:04.112Z,19.21
2022-08-02T05:53:39.990Z,19.34
2022-08-02T05:56:19.094Z,19.43
2022-08-02T05:58:54.228Z,19.49
2022-08-02T06:01:30.078Z,19.60
2022-08-02T06:04:01.234Z,19.74
2022-08-02T06:06:33.573Z,19.73
2022-08-02T06:09:04.505Z,19.83
2022-08-02T06:11:37.581Z,20.00
2022-08-02T06:14:08.232Z,20.17
2022-08-02T06:16:37.615Z,20.16
2022-08-02T06:19:12.896Z,20.13
2022-08-02T06:22:31.191Z,20.12
2022-08-02T06:24:31.877Z,20.16
2022-08-02T06:27:01.711Z,20.27
2022-08-02T06:29:38.469Z,20.41
2022-08-02T06:32:08.975Z,20.61
2022-08-02T06:34:40.888Z,20.76
2022-08-02T06:37:18.725Z,20.78
2022-08-02T06:39:50.120Z,20.79
2022-08-02T06:42:27.350Z,20.78
2022-08-02T06:44:57.936Z,20.77
2022-08-02T06:47:26.738Z,20.83
2022-08-02T06:49:55.181Z,20.90
2022-08-02T06:52:30.029Z,21.03
2022-08-02T06:54:59.812Z,21.13
2022-08-02T06:57:28.219Z,21.12
2022-08-02T06:59:58.441Z,21.24
2022-08-02T07:02:29.401Z,21.33
2022-08-02T07:04:57.528Z,21.40
2022-08-02T07:07:25.656Z,21.34
2022-08-02T07:09:56.765Z,21.45
2022-08-02T07:12:31.124Z,21.53
2022-08-02T07:15:01.421Z,21.59
2022-08-02T07:17:29.860Z,21.57
2022-08-02T07:19:58.717Z,21.49
2022-08-02T07:22:28.322Z,21.54
2022-08-02T07:24:57.423Z,21.74
2022-08-02T07:27:25.972Z,21.68
2022-08-02T07:29:54.752Z,21.65
2022-08-02T07:32:28.065Z,21.76
2022-08-02T07:34:57.197Z,21.86
2022-08-02T07:37:53.388Z,21.95
2022-08-02T07:40:20.005Z,21.87
2022-08-02T07:42:50.017Z,21.84
2022-08-02T07:45:18.484Z,21.94
2022-08-02T07:47:48.141Z,22.10
2022-08-02T07:50:18.757Z,22.18
2022-08-02T07:52:47.230Z,22.23
2022-08-02T07:55:16.460Z,22.35
2022-08-02T07:57:46.651Z,22.43
2022-08-02T08:00:17.452Z,22.56
2022-08-02T08:02:47.474Z,22.55
2022-08-02T08:05:15.948Z,22.59
2022-08-02T08:07:45.108Z,22.69
2022-08-02T08:10:13.242Z,22.83
2022-08-02T08:12:41.324Z,22.95
2022-08-02T08:15:10.353Z,23.02
2022-08-02T08:17:38.812Z,23.31
2022-08-02T08:20:11.746Z,23.40
2022-08-02T08:22:42.163Z,23.49
2022-08-02T08:25:10.488Z,23.61
2022-08-02T08:27:48.320Z,23.43
2022-08-02T08:30:16.482Z,23.51
2022-08-02T08:32:44.470Z,23.55
2022-08-02T08:35:13.897Z,23.65
2022-08-02T08:37:41.877Z,23.44
2022-08-02T08:40:11.190Z,23.64
2022-08-02T08:42:40.829Z,23.90
2022-08-02T08:45:10.071Z,24.10
2022-08-02T08:47:39.890Z,24.32
2022-08-02T08:50:17.858Z,24.47
2022-08-02T08:52:54.932Z,24.69
2022-08-02T08:55:24.947Z,24.73
2022-08-02T08:57:53.919Z,24.60
2022-08-02T09:00:22.006Z,24.57
2022-08-02T09:02:51.280Z,24.55
2022-08-02T09:05:19.428Z,24.36
2022-08-02T09:07:51.281Z,24.26
2022-08-02T09:10:40.811Z,24.42
2022-08-02T09:13:31.370Z,24.44
2022-08-02T09:16:12.731Z,24.62
2022-08-02T09:18:43.942Z,24.64
2022-08-02T09:21:13.020Z,24.77
2022-08-02T09:23:44.063Z,24.95
2022-08-02T09:26:13.651Z,25.17
2022-08-02T09:28:43.892Z,25.13
2022-08-02T09:31:13.620Z,25.21
2022-08-02T09:33:43.538Z,25.18
2022-08-02T09:36:13.276Z,25.09
2022-08-02T09:38:55.044Z,25.38
2022-08-02T09:41:24.130Z,25.63
2022-08-02T09:44:05.477Z,25.81
2022-08-02T09:46:38.892Z,26.07
2022-08-02T09:49:09.743Z,26.19
2022-08-02T09:51:39.781Z,26.01
2022-08-02T09:54:12.020Z,25.88
2022-08-02T09:56:49.542Z,25.85
2022-08-02T09:59:18.591Z,26.14
2022-08-02T10:01:51.691Z,25.99
2022-08-02T10:04:30.650Z,25.74
2022-08-02T10:07:03.805Z,25.45
2022-08-02T10:09:34.659Z,25.35
2022-08-02T10:12:04.925Z,25.07
2022-08-02T10:14:34.960Z,25.28
2022-08-02T10:17:05.084Z,25.45
2022-08-02T10:20:00.361Z,25.79
2022-08-02T10:22:24.222Z,26.03
2022-08-02T10:24:54.885Z,26.06
2022-08-02T10:27:25.223Z,26.22
2022-08-02T10:29:56.074Z,26.39
2022-08-02T10:32:31.011Z,26.58
2022-08-02T10:35:23.198Z,26.67
2022-08-02T10:37:55.616Z,26.90
2022-08-02T10:40:26.934Z,27.22
2022-08-02T10:42:59.371Z,27.44
2022-08-02T10:45:29.757Z,27.77
2022-08-02T10:47:59.317Z,27.86
2022-08-02T10:50:55.674Z,27.90
2022-08-02T10:53:28.925Z,27.83
2022-08-02T10:56:00.589Z,28.17
2022-08-02T10:58:32.302Z,28.77
2022-08-02T11:01:05.551Z,29.40
2022-08-02T11:03:40.860Z,29.44
2022-08-02T11:06:24.606Z,29.28
2022-08-02T11:09:32.528Z,28.82
2022-08-02T11:12:05.129Z,29.03
2022-08-02T11:14:35.520Z,29.57
2022-08-02T11:17:11.625Z,30.14
2022-08-02T11:20:16.230Z,30.71
2022-08-02T11:22:45.540Z,31.25
2022-08-02T11:28:25.970Z,31.83
2022-08-02T11:31:02.819Z,31.43
2022-08-02T11:33:36.048Z,31.27
2022-08-02T11:36:07.115Z,31.45
2022-08-02T11:38:35.622Z,31.57
2022-08-02T11:41:06.249Z,31.34
2022-08-02T11:43:41.150Z,31.13
2022-08-02T11:46:15.075Z,30.35
2022-08-02T11:48:44.573Z,30.05
2022-08-02T11:51:14.167Z,30.40
2022-08-02T11:53:47.840Z,31.32
2022-08-02T11:56:17.905Z,31.11
2022-08-02T11:59:04.918Z,30.79
2022-08-02T12:01:44.914Z,29.90
2022-08-02T12:04:19.497Z,29.73
2022-08-02T12:06:58.873Z,29.85
2022-08-02T12:09:28.381Z,30.53
2022-08-02T12:11:57.957Z,30.73
2022-08-02T12:14:29.689Z,30.57
2022-08-02T12:17:15.098Z,30.20
2022-08-02T12:19:43.888Z,29.49
2022-08-02T12:22:16.747Z,29.66
2022-08-02T12:24:48.401Z,30.37
2022-08-02T12:27:33.340Z,31.25
2022-08-02T12:30:08.804Z,32.08
2022-08-02T12:32:37.488Z,32.43
2022-08-02T12:35:08.847Z,32.25
2022-08-02T12:37:38.180Z,31.91
2022-08-02T12:40:25.799Z,31.22
2022-08-02T12:43:01.034Z,30.49
2022-08-02T12:45:41.162Z,30.83
2022-08-02T12:48:10.904Z,30.73
2022-08-02T12:50:39.852Z,30.20
2022-08-02T12:53:10.967Z,29.83
2022-08-02T12:56:00.490Z,29.97
2022-08-02T12:58:31.021Z,30.81
2022-08-02T13:01:02.519Z,31.60
2022-08-02T13:04:07.582Z,32.39
2022-08-02T13:09:29.359Z,33.07
2022-08-02T13:11:57.658Z,33.57
2022-08-02T13:14:25.669Z,33.68
2022-08-02T13:16:57.221Z,33.73
2022-08-02T13:19:25.491Z,33.76
2022-08-02T13:22:03.678Z,34.22
2022-08-02T13:24:55.733Z,34.06
2022-08-02T13:27:26.178Z,33.40
2022-08-02T13:29:56.278Z,33.27
2022-08-02T13:32:27.905Z,33.30
2022-08-02T13:34:56.768Z,32.84
2022-08-02T13:37:25.400Z,32.30
2022-08-02T13:40:18.796Z,31.81
2022-08-02T13:42:42.404Z,30.97
2022-08-02T13:45:12.859Z,30.54
2022-08-02T13:48:04.554Z,30.75
2022-08-02T13:50:33.503Z,31.65
2022-08-02T13:53:01.563Z,32.42
2022-08-02T13:55:29.881Z,33.02
2022-08-02T13:57:58.046Z,33.55
2022-08-02T14:00:34.667Z,33.79
2022-08-02T14:03:06.981Z,34.09
2022-08-02T14:05:46.848Z,34.43
2022-08-02T14:08:17.897Z,34.93
2022-08-02T14:10:47.003Z,34.91
2022-08-02T14:13:15.014Z,34.78
2022-08-02T14:15:44.053Z,34.51
2022-08-02T14:18:14.891Z,34.82
2022-08-02T14:20:43.390Z,34.58
2022-08-02T14:23:11.584Z,34.22
2022-08-02T14:25:40.976Z,34.64
2022-08-02T14:28:09.295Z,34.72
2022-08-02T14:30:37.294Z,35.09
2022-08-02T14:33:05.530Z,34.90
2022-08-02T14:35:35.233Z,34.95
2022-08-02T14:38:03.263Z,34.48
2022-08-02T14:40:32.038Z,33.51
2022-08-02T14:43:06.160Z,32.37
2022-08-02T14:45:39.992Z,31.75
2022-08-02T14:48:10.734Z,31.63
2022-08-02T14:50:40.411Z,31.26
2022-08-02T14:53:12.743Z,31.00
2022-08-02T14:55:42.277Z,30.61
2022-08-02T14:58:11.060Z,30.25
2022-08-02T15:00:41.157Z,30.29
2022-08-02T15:03:10.515Z,30.32
2022-08-02T15:05:40.102Z,31.08
2022-08-02T15:08:08.213Z,31.74
2022-08-02T15:10:36.275Z,32.19
2022-08-02T15:13:04.333Z,32.58
2022-08-02T15:15:32.585Z,32.35
2022-08-02T15:18:11.088Z,31.76
2022-08-02T15:20:41.464Z,31.25
2022-08-02T15:23:12.912Z,31.04
2022-08-02T15:25:42.527Z,30.71
2022-08-02T15:28:10.857Z,30.31
2022-08-02T15:30:39.514Z,29.97
2022-08-02T15:33:07.809Z,29.94
2022-08-02T15:35:35.789Z,29.77
2022-08-02T15:38:05.213Z,29.59
2022-08-02T15:40:33.234Z,29.52
2022-08-02T15:43:01.451Z,29.69
2022-08-02T15:45:29.875Z,29.96
2022-08-02T15:47:58.044Z,29.81
2022-08-02T15:50:26.216Z,29.90
2022-08-02T15:52:54.210Z,30.23
2022-08-02T15:55:24.195Z,30.38
2022-08-02T15:57:52.213Z,30.75
2022-08-02T16:00:20.621Z,31.21
2022-08-02T16:02:49.055Z,31.16
2022-08-02T16:05:18.344Z,31.42
2022-08-02T16:07:46.656Z,31.90
2022-08-02T16:10:14.861Z,31.85
2022-08-02T16:12:44.544Z,31.40
2022-08-02T16:15:13.676Z,30.79
2022-08-02T16:17:53.844Z,30.28
2022-08-02T16:20:23.247Z,29.97
2022-08-02T16:22:51.688Z,29.73
2022-08-02T16:25:19.811Z,29.38
2022-08-02T16:27:57.560Z,28.97
2022-08-02T16:30:34.776Z,28.68
2022-08-02T16:33:03.300Z,28.53
2022-08-02T16:35:31.375Z,28.38
2022-08-02T16:37:59.384Z,28.30
2022-08-02T16:40:27.373Z,28.13
2022-08-02T16:42:56.750Z,28.08
2022-08-02T16:45:24.912Z,28.00
2022-08-02T16:47:57.299Z,27.93
2022-08-02T16:50:31.614Z,27.83
2022-08-02T16:52:59.658Z,27.77
2022-08-02T16:55:35.227Z,27.73
2022-08-02T16:58:04.773Z,27.53
2022-08-02T17:00:38.423Z,27.52
2022-08-02T17:03:14.425Z,27.42
2022-08-02T17:05:56.453Z,27.43
2022-08-02T17:08:31.663Z,27.44
2022-08-02T17:11:04.018Z,27.56
2022-08-02T17:13:34.355Z,27.47
2022-08-02T17:16:25.865Z,27.42
2022-08-02T17:18:55.513Z,27.67
2022-08-02T17:21:23.711Z,27.79
2022-08-02T17:24:05.441Z,27.98
2022-08-02T17:26:36.440Z,27.97
2022-08-02T17:29:14.089Z,27.92
2022-08-02T17:32:05.087Z,28.00
2022-08-02T17:34:33.613Z,27.79
2022-08-02T17:37:02.143Z,27.48
2022-08-02T17:39:44.402Z,27.44
2022-08-02T17:42:23.698Z,27.30
2022-08-02T17:44:54.735Z,27.21
2022-08-02T17:47:30.998Z,27.08
2022-08-02T17:49:59.922Z,26.98
2022-08-02T17:52:52.002Z,26.81
2022-08-02T17:55:16.848Z,26.64
2022-08-02T17:57:58.142Z,26.59
2022-08-02T18:00:33.633Z,26.43
2022-08-02T18:03:05.841Z,26.40
2022-08-02T18:05:40.430Z,26.38
2022-08-02T18:08:22.773Z,26.30
2022-08-02T18:10:52.473Z,26.25
2022-08-02T18:13:20.513Z,26.23
2022-08-02T18:15:50.047Z,26.14
2022-08-02T18:18:19.107Z,26.15
2022-08-02T18:20:54.623Z,26.05
2022-08-02T18:23:23.867Z,25.97
2022-08-02T18:25:55.199Z,25.90
2022-08-02T18:28:26.666Z,25.82
2022-08-02T18:30:56.936Z,25.74
2022-08-02T18:33:58.636Z,25.66
2022-08-02T18:36:24.645Z,25.61
2022-08-02T18:38:53.695Z,25.53
2022-08-02T18:41:23.406Z,25.48
2022-08-02T18:43:54.512Z,25.42
2022-08-02T18:46:30.157Z,25.33
2022-08-02T18:49:06.621Z,25.28
2022-08-02T18:51:49.253Z,25.24
2022-08-02T18:54:30.574Z,25.14
2022-08-02T18:57:04.286Z,25.05
2022-08-02T18:59:51.501Z,25.07
2022-08-02T19:02:22.044Z,24.95
2022-08-02T19:04:53.374Z,24.94
2022-08-02T19:07:22.441Z,24.91
2022-08-02T19:09:50.696Z,24.92
2022-08-02T19:12:28.436Z,24.94
2022-08-02T19:14:58.948Z,24.83
2022-08-02T19:17:55.426Z,24.80
2022-08-02T19:20:19.400Z,24.73
2022-08-02T19:22:50.077Z,24.60
2022-08-02T19:25:27.732Z,24.61
2022-08-02T19:27:56.452Z,24.68
2022-08-02T19:30:25.948Z,24.65
2022-08-02T19:33:00.270Z,24.58
2022-08-02T19:36:01.950Z,24.48
2022-08-02T19:38:31.815Z,24.43
2022-08-02T19:41:00.043Z,24.31
2022-08-02T19:44:25.926Z,24.20
2022-08-02T19:46:18.455Z,24.08
2022-08-02T19:48:47.862Z,23.92
2022-08-02T19:51:15.981Z,23.84
2022-08-02T19:54:03.932Z,23.86
2022-08-02T19:56:32.013Z,23.80
2022-08-02T19:59:02.905Z,23.73
2022-08-02T20:01:46.342Z,23.65
2022-08-02T20:04:22.980Z,23.57
2022-08-02T20:06:51.770Z,23.50
2022-08-02T20:09:23.031Z,23.50
2022-08-02T20:11:54.997Z,23.56
2022-08-02T20:14:26.567Z,23.53
2022-08-02T20:16:55.115Z,23.57
2022-08-02T20:19:25.216Z,23.49
2022-08-02T20:21:59.664Z,23.51
2022-08-02T20:24:29.755Z,23.38
2022-08-02T20:26:59.395Z,23.38
2022-08-02T20:29:44.483Z,23.32
2022-08-02T20:32:23.409Z,23.31
2022-08-02T20:34:54.045Z,23.25
2022-08-02T20:38:01.317Z,23.29
2022-08-02T20:40:17.011Z,23.15
2022-08-02T20:43:00.660Z,23.19
2022-08-02T20:45:28.932Z,23.14
2022-08-02T20:48:01.738Z,23.11
2022-08-02T20:50:50.811Z,22.98
2022-08-02T20:53:23.531Z,22.83
2022-08-02T20:55:55.972Z,22.78
2022-08-02T20:58:27.017Z,22.68
2022-08-02T21:00:59.186Z,22.66
2022-08-02T21:03:38.812Z,22.50
2022-08-02T21:06:17.777Z,22.42
2022-08-02T21:08:49.302Z,22.45
2022-08-02T21:11:17.644Z,22.52
2022-08-02T21:13:46.424Z,22.49
2022-08-02T21:16:18.329Z,22.52
2022-08-02T21:18:47.538Z,22.52
2022-08-02T21:21:16.501Z,22.50
2022-08-02T21:23:48.993Z,22.49
2022-08-02T21:26:25.905Z,22.52
2022-08-02T21:29:00.984Z,22.52
2022-08-02T21:31:33.470Z,22.51
2022-08-02T21:34:21.751Z,22.44
2022-08-02T21:36:52.464Z,22.40
2022-08-02T21:39:21.867Z,22.27
2022-08-02T21:41:50.392Z,22.24
2022-08-02T21:44:19.804Z,22.17
2022-08-02T21:46:49.374Z,22.12
2022-08-02T21:49:18.559Z,22.04
2022-08-02T21:51:49.633Z,22.03
2022-08-02T21:54:20.118Z,21.91
2022-08-02T21:56:52.123Z,21.84
2022-08-02T21:59:26.369Z,21.77
2022-08-02T22:01:56.522Z,21.73
2022-08-02T22:04:26.182Z,21.70
2022-08-02T22:06:54.897Z,21.67
2022-08-02T22:09:44.685Z,21.69
2022-08-02T22:12:18.084Z,21.65
2022-08-02T22:14:53.996Z,21.63
2022-08-02T22:17:52.447Z,21.62
2022-08-02T22:20:14.215Z,21.59
2022-08-02T22:22:43.598Z,21.49
2022-08-02T22:25:26.955Z,21.35
2022-08-02T22:28:35.003Z,21.32
2022-08-02T22:30:52.470Z,21.25
2022-08-02T22:33:42.132Z,21.12
2022-08-02T22:36:15.339Z,21.05
2022-08-02T22:38:45.374Z,20.98
2022-08-02T22:41:16.585Z,20.89
2022-08-02T22:43:46.000Z,20.85
2022-08-02T22:46:15.474Z,20.81
2022-08-02T22:48:45.660Z,20.76
2022-08-02T22:51:14.515Z,20.71
2022-08-02T22:53:43.372Z,20.71
2022-08-02T22:56:12.103Z,20.76
2022-08-02T23:01:30.103Z,20.61
2022-08-02T23:03:58.164Z,20.50
2022-08-02T23:06:26.130Z,20.53
2022-08-02T23:08:54.181Z,20.51
2022-08-02T23:11:23.183Z,20.48
2022-08-02T23:13:51.294Z,20.40
2022-08-02T23:16:39.743Z,20.32
2022-08-02T23:19:26.685Z,20.31
2022-08-02T23:22:02.692Z,20.22
2022-08-02T23:24:33.198Z,20.22
2022-08-02T23:27:02.814Z,20.17
2022-08-02T23:29:30.829Z,20.17
2022-08-02T23:31:59.156Z,20.19
2022-08-02T23:34:28.688Z,20.25
2022-08-02T23:36:56.940Z,20.20
2022-08-02T23:39:24.933Z,20.15
2022-08-02T23:41:55.291Z,20.12
2022-08-02T23:44:23.988Z,20.06
2022-08-02T23:46:52.696Z,20.05
2022-08-02T23:49:21.355Z,20.06
2022-08-02T23:51:51.694Z,19.99
2022-08-02T23:54:20.543Z,20.04
2022-08-02T23:56:48.551Z,20.02
2022-08-02T23:59:16.662Z,20.00
